Time;durP1;ratioP1;P1;durP2;ratioP2;P2;SDS_P1;SDS_P2;PMS_P1;PMS_P2;Temp;Humidity;BMP_temperature;BMP_pressure;BME280_temperature;BME280_humidity;BME280_pressure;Samples;Min_cycle;Max_cycle;Signal;HPM_P1;HPM_P2
2023/04/20 00:02:22;;;;;;;9.20;6.28;;;;;;;;;;10136618;28;20134;-69
2023/04/20 00:07:17;;;;;;;5.28;4.70;;;;;;;;;;10130237;28;20094;-68
2023/04/20 00:12:11;;;;;;;7.45;5.93;;;;;;;;;;10120652;28;20053;-69
2023/04/20 00:17:05;;;;;;;8.02;5.50;;;;;;;;;;10122516;28;20040;-69
2023/04/20 00:21:59;;;;;;;7.68;5.55;;;;;;;;;;10122980;28;20041;-68
2023/04/20 00:26:53;;;;;;;6.75;6.05;;;;;;;;;;10122335;28;20400;-69
2023/04/20 00:31:48;;;;;;;8.18;6.93;;;;;;;;;;10118906;28;20057;-69
2023/04/20 00:36:41;;;;;;;12.25;9.88;;;;;;;;;;10128358;28;20059;-69
2023/04/20 00:41:35;;;;;;;14.43;10.65;;;;;;;;;;10099218;28;20059;-69
2023/04/20 00:46:28;;;;;;;10.90;9.52;;;;;;;;;;10092422;28;20472;-68
2023/04/20 00:51:22;;;;;;;14.23;10.63;;;;;;;;;;10067226;28;20046;-70
2023/04/20 00:56:16;;;;;;;10.57;8.90;;;;;;;;;;10093960;28;20038;-70
2023/04/20 01:01:10;;;;;;;19.48;9.10;;;;;;;;;;10079221;28;20048;-70
2023/04/20 01:06:05;;;;;;;14.45;10.57;;;;;;;;;;10073984;28;20053;-69
2023/04/20 01:10:58;;;;;;;15.88;10.13;;;;;;;;;;10083734;28;20053;-69
2023/04/20 01:15:53;;;;;;;14.80;10.70;;;;;;;;;;10073221;28;20132;-69
2023/04/20 01:20:47;;;;;;;20.02;13.15;;;;;;;;;;10073990;28;20048;-69
2023/04/20 01:25:41;;;;;;;12.73;10.90;;;;;;;;;;10109010;28;20045;-69
2023/04/20 01:30:35;;;;;;;14.20;11.07;;;;;;;;;;10096386;28;20053;-69
2023/04/20 01:35:29;;;;;;;13.05;10.32;;;;;;;;;;10080576;28;20522;-69
2023/04/20 01:40:22;;;;;;;15.00;12.05;;;;;;;;;;10063060;28;20053;-69
2023/04/20 01:45:16;;;;;;;13.07;10.07;;;;;;;;;;10100982;28;20150;-69
2023/04/20 01:50:08;;;;;;;13.75;11.07;;;;;;;;;;10116994;28;20060;-68
2023/04/20 01:55:03;;;;;;;15.45;10.23;;;;;;;;;;10109924;28;20052;-69
2023/04/20 01:59:56;;;;;;;15.05;11.07;;;;;;;;;;10118614;28;20132;-69
2023/04/20 02:04:49;;;;;;;13.30;10.80;;;;;;;;;;10127377;28;20044;-69
2023/04/20 02:09:42;;;;;;;11.35;9.98;;;;;;;;;;10102487;28;20041;-69
2023/04/20 02:14:35;;;;;;;17.25;11.20;;;;;;;;;;10125069;28;20056;-69
2023/04/20 02:19:28;;;;;;;13.32;10.85;;;;;;;;;;10108213;28;20119;-69
2023/04/20 02:24:21;;;;;;;18.40;12.35;;;;;;;;;;10126694;28;20041;-69
2023/04/20 02:29:15;;;;;;;19.60;11.63;;;;;;;;;;10134233;28;20044;-69
2023/04/20 02:34:09;;;;;;;17.92;12.32;;;;;;;;;;10113558;28;20049;-69
2023/04/20 02:39:02;;;;;;;14.93;11.20;;;;;;;;;;10120576;28;20075;-68
2023/04/20 02:43:58;;;;;;;17.65;12.40;;;;;;;;;;10089819;28;20057;-69
2023/04/20 02:48:54;;;;;;;15.95;12.77;;;;;;;;;;10099111;28;20060;-68
2023/04/20 02:53:49;;;;;;;16.15;12.40;;;;;;;;;;10121468;28;20048;-69
2023/04/20 02:58:53;;;;;;;19.10;13.75;;;;;;;;;;10096735;28;20495;-69
2023/04/20 03:04:00;;;;;;;21.75;13.73;;;;;;;;;;10087922;28;20057;-69
2023/04/20 03:08:55;;;;;;;33.25;14.82;;;;;;;;;;10097427;28;20103;-68
2023/04/20 03:14:10;;;;;;;20.77;15.20;;;;;;;;;;10096335;28;20084;-69
2023/04/20 03:19:03;;;;;;;16.17;11.93;;;;;;;;;;10089690;28;20130;-69
2023/04/20 03:23:57;;;;;;;19.98;14.27;;;;;;;;;;10107010;28;20051;-68
2023/04/20 03:28:52;;;;;;;17.85;13.45;;;;;;;;;;10093208;28;20411;-68
2023/04/20 03:33:49;;;;;;;15.18;12.60;;;;;;;;;;10112908;28;20072;-68
2023/04/20 03:38:43;;;;;;;14.40;11.75;;;;;;;;;;10088557;28;20045;-68
2023/04/20 03:43:36;;;;;;;16.50;12.25;;;;;;;;;;10106483;28;20102;-69
2023/04/20 03:48:30;;;;;;;13.98;12.43;;;;;;;;;;10124643;28;20122;-68
2023/04/20 03:53:23;;;;;;;12.85;11.35;;;;;;;;;;10092799;28;20595;-68
2023/04/20 03:58:16;;;;;;;14.77;12.68;;;;;;;;;;10133167;28;20082;-69
2023/04/20 04:03:23;;;;;;;15.18;11.95;;;;;;;;;;10110179;28;20056;-68
2023/04/20 04:08:16;;;;;;;13.35;10.82;;;;;;;;;;10134186;28;20049;-68
2023/04/20 04:13:10;;;;;;;13.05;10.55;;;;;;;;;;10102351;28;20389;-68
2023/04/20 04:18:04;;;;;;;14.50;10.93;;;;;;;;;;10093546;28;20045;-68
2023/04/20 04:23:00;;;;;;;11.55;9.60;;;;;;;;;;10102550;28;20037;-69
2023/04/20 04:28:03;;;;;;;15.18;12.23;;;;;;;;;;10111992;28;20411;-69
2023/04/20 04:32:58;;;;;;;14.02;11.52;;;;;;;;;;10120265;28;20061;-68
2023/04/20 04:37:52;;;;;;;17.38;10.85;;;;;;;;;;10101936;28;20095;-68
2023/04/20 04:42:47;;;;;;;12.35;11.07;;;;;;;;;;10109713;28;20578;-69
2023/04/20 04:47:42;;;;;;;11.52;9.90;;;;;;;;;;10095994;28;20053;-69
2023/04/20 04:52:36;;;;;;;12.48;10.52;;;;;;;;;;10075769;28;20124;-69
2023/04/20 04:57:29;;;;;;;13.43;10.65;;;;;;;;;;10078725;28;20053;-69
2023/04/20 05:02:22;;;;;;;12.30;9.38;;;;;;;;;;10065483;28;20451;-69
2023/04/20 05:07:16;;;;;;;11.63;10.40;;;;;;;;;;10096155;28;20068;-80
2023/04/20 05:12:10;;;;;;;17.38;9.55;;;;;;;;;;10099479;28;20466;-80
2023/04/20 05:17:04;;;;;;;12.35;10.23;;;;;;;;;;10105227;28;20455;-73
2023/04/20 05:21:59;;;;;;;13.00;10.18;;;;;;;;;;10104797;28;20052;-76
2023/04/20 05:26:52;;;;;;;10.75;9.50;;;;;;;;;;10111011;28;20052;-78
2023/04/20 05:31:45;;;;;;;13.20;10.38;;;;;;;;;;10100317;28;20057;-77
2023/04/20 05:36:40;;;;;;;14.32;9.68;;;;;;;;;;10078798;28;20092;-76
2023/04/20 05:41:33;;;;;;;12.43;10.38;;;;;;;;;;10070054;28;20042;-74
2023/04/20 05:46:28;;;;;;;11.77;10.57;;;;;;;;;;10070779;28;20061;-77
2023/04/20 05:51:24;;;;;;;13.57;10.73;;;;;;;;;;10081007;28;20052;-74
2023/04/20 05:56:18;;;;;;;22.25;11.00;;;;;;;;;;10083405;28;20049;-74
2023/04/20 06:01:13;;;;;;;12.07;10.27;;;;;;;;;;10096410;28;20139;-73
2023/04/20 06:06:07;;;;;;;16.85;12.93;;;;;;;;;;10089632;28;20456;-76
2023/04/20 06:11:00;;;;;;;18.85;11.65;;;;;;;;;;10096363;28;20098;-75
2023/04/20 06:15:56;;;;;;;15.60;11.45;;;;;;;;;;10095980;28;20439;-73
2023/04/20 06:20:49;;;;;;;12.90;11.60;;;;;;;;;;10085152;28;20128;-74
2023/04/20 06:25:45;;;;;;;13.57;12.18;;;;;;;;;;10085388;28;20037;-78
2023/04/20 06:30:37;;;;;;;17.55;11.07;;;;;;;;;;10068378;28;20128;-68
2023/04/20 06:35:32;;;;;;;19.15;13.65;;;;;;;;;;10078356;28;20041;-69
2023/04/20 06:40:29;;;;;;;19.83;12.77;;;;;;;;;;10068160;28;20041;-68
2023/04/20 06:45:22;;;;;;;28.95;14.23;;;;;;;;;;10067056;28;20504;-68
2023/04/20 06:50:15;;;;;;;23.00;15.63;;;;;;;;;;10071248;28;20068;-69
2023/04/20 06:55:08;;;;;;;24.45;17.90;;;;;;;;;;10068131;28;20060;-69
2023/04/20 07:00:03;;;;;;;31.58;19.38;;;;;;;;;;10047301;28;20099;-69
2023/04/20 07:05:01;;;;;;;21.00;17.02;;;;;;;;;;10083068;28;20041;-69
2023/04/20 07:09:55;;;;;;;24.80;17.93;;;;;;;;;;10078278;28;20511;-68
2023/04/20 07:14:48;;;;;;;28.20;18.73;;;;;;;;;;10088409;28;20369;-68
2023/04/20 07:19:42;;;;;;;23.33;18.45;;;;;;;;;;10069199;28;20041;-69
2023/04/20 07:24:35;;;;;;;28.08;19.35;;;;;;;;;;10087918;28;20057;-69
2023/04/20 07:29:28;;;;;;;20.48;17.23;;;;;;;;;;10079984;28;20120;-68
2023/04/20 07:34:24;;;;;;;23.63;16.95;;;;;;;;;;10084549;28;20436;-68
2023/04/20 07:39:17;;;;;;;25.33;17.10;;;;;;;;;;10072783;28;20123;-68
2023/04/20 07:44:12;;;;;;;19.42;17.08;;;;;;;;;;10071198;28;20041;-69
2023/04/20 07:49:06;;;;;;;21.17;17.08;;;;;;;;;;10075724;28;20064;-69
2023/04/20 07:54:01;;;;;;;20.60;17.75;;;;;;;;;;10077406;28;20552;-70
2023/04/20 07:58:54;;;;;;;22.10;17.60;;;;;;;;;;10085495;28;20067;-69
2023/04/20 08:03:48;;;;;;;24.17;18.17;;;;;;;;;;10088913;28;20045;-69
2023/04/20 08:08:42;;;;;;;23.40;17.85;;;;;;;;;;10087876;28;20053;-69
2023/04/20 08:13:36;;;;;;;21.23;17.65;;;;;;;;;;10097830;28;20075;-69
2023/04/20 08:18:30;;;;;;;21.08;18.30;;;;;;;;;;10095568;28;20056;-69
2023/04/20 08:23:26;;;;;;;21.45;17.30;;;;;;;;;;10080876;28;20037;-69
2023/04/20 08:28:19;;;;;;;22.98;18.75;;;;;;;;;;10081939;28;20053;-69
2023/04/20 08:33:26;;;;;;;20.77;17.30;;;;;;;;;;10089927;28;20057;-69
2023/04/20 08:38:20;;;;;;;20.30;18.08;;;;;;;;;;10087324;28;20466;-69
2023/04/20 08:43:25;;;;;;;18.35;14.30;;;;;;;;;;10085545;28;20136;-68
2023/04/20 08:48:20;;;;;;;16.30;14.13;;;;;;;;;;10072430;28;20576;-69
2023/04/20 08:53:13;;;;;;;16.80;13.82;;;;;;;;;;10078329;28;20084;-69
2023/04/20 08:58:06;;;;;;;18.42;13.73;;;;;;;;;;10075719;28;20124;-68
2023/04/20 09:03:01;;;;;;;16.75;13.00;;;;;;;;;;10092654;28;20446;-69
2023/04/20 09:07:56;;;;;;;14.60;13.10;;;;;;;;;;10094795;28;20045;-68
2023/04/20 09:12:49;;;;;;;14.90;12.82;;;;;;;;;;10092657;28;20468;-68
2023/04/20 09:17:43;;;;;;;15.20;12.02;;;;;;;;;;10097877;28;20073;-68
2023/04/20 09:22:37;;;;;;;22.13;12.63;;;;;;;;;;10079990;28;20175;-68
2023/04/20 09:27:31;;;;;;;17.15;12.88;;;;;;;;;;10072406;28;20051;-68
2023/04/20 09:32:25;;;;;;;15.55;13.32;;;;;;;;;;10089347;28;20049;-69
2023/04/20 09:37:18;;;;;;;14.98;12.90;;;;;;;;;;10067771;28;20107;-69
2023/04/20 09:42:14;;;;;;;15.52;11.65;;;;;;;;;;10091827;28;20044;-69
2023/04/20 09:47:07;;;;;;;14.68;10.68;;;;;;;;;;10105316;28;20057;-69
2023/04/20 09:52:05;;;;;;;12.10;10.90;;;;;;;;;;10129179;28;20049;-69
2023/04/20 09:57:00;;;;;;;13.38;11.73;;;;;;;;;;10124011;28;20128;-69
2023/04/20 10:01:52;;;;;;;14.57;12.05;;;;;;;;;;10114292;28;20136;-67
2023/04/20 10:06:54;;;;;;;14.23;10.77;;;;;;;;;;10131136;28;20052;-67
2023/04/20 10:11:47;;;;;;;12.95;11.60;;;;;;;;;;10112496;28;20408;-68
2023/04/20 10:17:00;;;;;;;10.00;9.00;;;;;;;;;;10138727;28;20048;-68
2023/04/20 10:21:53;;;;;;;10.38;9.38;;;;;;;;;;10122379;28;20040;-73
2023/04/20 10:26:47;;;;;;;9.95;8.07;;;;;;;;;;10113901;28;20128;-70
2023/04/20 10:31:41;;;;;;;9.85;7.80;;;;;;;;;;10108637;28;20129;-69
2023/04/20 10:36:36;;;;;;;9.10;8.20;;;;;;;;;;10119077;28;20082;-70
2023/04/20 10:41:30;;;;;;;9.20;8.23;;;;;;;;;;10114015;28;20045;-69
2023/04/20 10:46:24;;;;;;;9.07;6.90;;;;;;;;;;10104357;28;20061;-69
2023/04/20 10:51:18;;;;;;;7.80;7.07;;;;;;;;;;10073299;28;20048;-69
2023/04/20 10:56:11;;;;;;;8.82;7.25;;;;;;;;;;10065774;28;20055;-69
2023/04/20 11:01:05;;;;;;;10.75;8.10;;;;;;;;;;10074501;28;20053;-69
2023/04/20 11:06:02;;;;;;;10.85;7.22;;;;;;;;;;10086392;28;20507;-69
2023/04/20 11:11:28;;;;;;;8.00;6.82;;;;;;;;;;10082628;28;20503;-69
2023/04/20 11:16:38;;;;;;;8.93;7.20;;;;;;;;;;10076594;28;20620;-68
2023/04/20 11:21:44;;;;;;;7.30;6.47;;;;;;;;;;10069790;28;20052;-70
2023/04/20 11:26:42;;;;;;;7.38;6.25;;;;;;;;;;10078784;28;20083;-67
2023/04/20 11:31:37;;;;;;;8.80;6.40;;;;;;;;;;10078699;28;20076;-69
2023/04/20 11:36:30;;;;;;;7.80;6.00;;;;;;;;;;10067264;28;20077;-70
2023/04/20 11:41:23;;;;;;;9.50;6.65;;;;;;;;;;10079979;28;20394;-67
2023/04/20 11:46:17;;;;;;;6.72;6.13;;;;;;;;;;10083562;28;20382;-68
2023/04/20 11:51:10;;;;;;;8.20;6.97;;;;;;;;;;10086434;28;20055;-69
2023/04/20 11:56:05;;;;;;;8.32;5.53;;;;;;;;;;10074691;28;20046;-69
2023/04/20 12:00:59;;;;;;;10.65;6.07;;;;;;;;;;10097654;28;20045;-69
2023/04/20 12:05:53;;;;;;;8.77;6.00;;;;;;;;;;10088153;28;20111;-68
2023/04/20 12:10:47;;;;;;;13.52;7.82;;;;;;;;;;10103852;28;20045;-70
2023/04/20 12:15:40;;;;;;;7.13;6.03;;;;;;;;;;10095420;28;20037;-68
2023/04/20 12:20:34;;;;;;;8.30;7.50;;;;;;;;;;10074750;28;20047;-68
2023/04/20 12:25:28;;;;;;;7.65;6.95;;;;;;;;;;10082730;28;20064;-69
2023/04/20 12:30:21;;;;;;;8.15;7.00;;;;;;;;;;10073638;28;20756;-69
2023/04/20 12:35:17;;;;;;;8.68;7.65;;;;;;;;;;10080114;28;20045;-68
2023/04/20 12:40:11;;;;;;;8.98;8.05;;;;;;;;;;10083545;28;20045;-69
2023/04/20 12:45:06;;;;;;;10.27;9.27;;;;;;;;;;10096684;28;20147;-68
2023/04/20 12:49:59;;;;;;;12.75;9.27;;;;;;;;;;10117296;28;20059;-68
2023/04/20 12:54:54;;;;;;;11.85;10.10;;;;;;;;;;10136437;28;20080;-69
2023/04/20 12:59:48;;;;;;;12.32;11.23;;;;;;;;;;10120009;28;20618;-69
2023/04/20 13:04:41;;;;;;;11.88;9.95;;;;;;;;;;10129265;28;20053;-68
2023/04/20 13:09:35;;;;;;;13.45;10.65;;;;;;;;;;10120971;28;20408;-69
2023/04/20 13:14:29;;;;;;;10.88;9.98;;;;;;;;;;10120948;28;20461;-68
2023/04/20 13:19:24;;;;;;;12.45;10.30;;;;;;;;;;10121364;28;20059;-68
2023/04/20 13:24:17;;;;;;;18.17;11.75;;;;;;;;;;10117085;28;20053;-68
2023/04/20 13:29:11;;;;;;;12.52;11.23;;;;;;;;;;10117787;28;20140;-68
2023/04/20 13:34:05;;;;;;;12.27;11.18;;;;;;;;;;10114119;28;20457;-68
2023/04/20 13:38:58;;;;;;;11.32;10.30;;;;;;;;;;10129660;28;20057;-68
2023/04/20 13:43:52;;;;;;;12.30;11.00;;;;;;;;;;10121039;28;20036;-68
2023/04/20 13:48:46;;;;;;;13.68;10.63;;;;;;;;;;10128765;28;20079;-68
2023/04/20 13:53:38;;;;;;;12.50;11.20;;;;;;;;;;10120721;28;20037;-68
2023/04/20 13:58:32;;;;;;;16.13;11.50;;;;;;;;;;10121665;28;20131;-68
2023/04/20 14:03:26;;;;;;;13.52;12.18;;;;;;;;;;10112117;28;20522;-64
2023/04/20 14:08:22;;;;;;;14.02;11.32;;;;;;;;;;10128568;28;20137;-66
2023/04/20 14:13:15;;;;;;;12.50;11.07;;;;;;;;;;10109719;28;20059;-65
2023/04/20 14:18:08;;;;;;;17.10;9.93;;;;;;;;;;10124573;28;20131;-66
2023/04/20 14:23:02;;;;;;;9.65;8.75;;;;;;;;;;10119652;28;20149;-65
2023/04/20 14:27:55;;;;;;;10.95;8.88;;;;;;;;;;10112866;28;20501;-66
2023/04/20 14:32:59;;;;;;;11.00;8.27;;;;;;;;;;10121379;28;20076;-66
2023/04/20 14:37:52;;;;;;;14.10;8.60;;;;;;;;;;10122518;28;20053;-65
2023/04/20 14:42:47;;;;;;;7.18;4.97;;;;;;;;;;10135069;28;20061;-65
2023/04/20 14:47:40;;;;;;;5.10;4.47;;;;;;;;;;10116233;28;20049;-65
2023/04/20 14:52:34;;;;;;;5.00;3.80;;;;;;;;;;10123190;28;20087;-65
2023/04/20 14:57:28;;;;;;;4.28;2.85;;;;;;;;;;10112071;28;20467;-65
2023/04/20 15:02:21;;;;;;;3.20;2.72;;;;;;;;;;10112001;28;20403;-69
2023/04/20 15:07:16;;;;;;;6.13;3.20;;;;;;;;;;10114880;28;20103;-65
2023/04/20 15:12:10;;;;;;;5.10;3.38;;;;;;;;;;10112623;28;20075;-65
2023/04/20 15:17:05;;;;;;;5.30;3.92;;;;;;;;;;10117612;28;20436;-66
2023/04/20 15:21:58;;;;;;;8.10;4.63;;;;;;;;;;10124522;28;20454;-65
2023/04/20 15:26:52;;;;;;;4.90;4.22;;;;;;;;;;10113075;28;20048;-66
2023/04/20 15:31:46;;;;;;;10.93;5.63;;;;;;;;;;10117185;28;20040;-65
2023/04/20 15:36:41;;;;;;;11.38;6.00;;;;;;;;;;10133505;28;20047;-65
2023/04/20 15:41:36;;;;;;;6.40;5.50;;;;;;;;;;10137723;28;20144;-67
2023/04/20 15:46:29;;;;;;;10.82;5.60;;;;;;;;;;10129792;28;20052;-65
2023/04/20 15:51:23;;;;;;;9.32;6.32;;;;;;;;;;10122190;28;20111;-65
2023/04/20 15:56:20;;;;;;;15.35;6.60;;;;;;;;;;10106659;28;20048;-65
2023/04/20 16:01:15;;;;;;;6.63;6.03;;;;;;;;;;10103307;28;20049;-66
2023/04/20 16:06:08;;;;;;;21.95;16.23;;;;;;;;;;10125328;28;20052;-65
2023/04/20 16:11:01;;;;;;;10.07;5.85;;;;;;;;;;10125295;28;20491;-66
2023/04/20 16:15:55;;;;;;;9.90;7.10;;;;;;;;;;10120086;28;20048;-66
2023/04/20 16:20:49;;;;;;;9.43;6.20;;;;;;;;;;10121242;28;20479;-66
2023/04/20 16:25:43;;;;;;;9.98;6.80;;;;;;;;;;10116607;28;20102;-67
2023/04/20 16:30:37;;;;;;;5.10;4.60;;;;;;;;;;10126400;28;20066;-67
2023/04/20 16:35:31;;;;;;;6.85;5.57;;;;;;;;;;10132650;28;20426;-67
2023/04/20 16:40:27;;;;;;;8.10;5.53;;;;;;;;;;10117867;28;20139;-66
2023/04/20 16:45:21;;;;;;;7.03;5.63;;;;;;;;;;10125087;28;20049;-66
2023/04/20 16:50:18;;;;;;;6.05;5.18;;;;;;;;;;10126042;28;20053;-65
2023/04/20 16:55:11;;;;;;;5.85;5.25;;;;;;;;;;10132041;28;20045;-65
2023/04/20 17:00:09;;;;;;;7.50;6.38;;;;;;;;;;10123679;28;20414;-66
2023/04/20 17:05:04;;;;;;;10.45;7.55;;;;;;;;;;10126068;28;20073;-67
2023/04/20 17:09:58;;;;;;;7.55;6.65;;;;;;;;;;10116665;28;20108;-67
2023/04/20 17:14:51;;;;;;;9.05;7.82;;;;;;;;;;10098725;28;20064;-67
2023/04/20 17:19:44;;;;;;;11.23;8.23;;;;;;;;;;10117896;28;20048;-67
2023/04/20 17:24:37;;;;;;;11.65;8.60;;;;;;;;;;10115470;28;20043;-66
2023/04/20 17:29:34;;;;;;;17.60;10.27;;;;;;;;;;10131875;28;20114;-68
2023/04/20 17:34:29;;;;;;;13.38;10.73;;;;;;;;;;10126729;28;20458;-68
2023/04/20 17:39:23;;;;;;;16.65;12.48;;;;;;;;;;10125103;28;20073;-67
2023/04/20 17:44:16;;;;;;;17.55;12.98;;;;;;;;;;10135808;28;20401;-67
2023/04/20 17:49:10;;;;;;;15.45;11.60;;;;;;;;;;10080733;28;20064;-68
2023/04/20 17:54:05;;;;;;;15.30;11.07;;;;;;;;;;10075822;28;20058;-66
2023/04/20 17:58:59;;;;;;;13.75;11.27;;;;;;;;;;10083647;28;20053;-67
2023/04/20 18:03:52;;;;;;;12.25;10.30;;;;;;;;;;10086743;28;20050;-67
2023/04/20 18:08:46;;;;;;;12.93;11.73;;;;;;;;;;10084533;28;20536;-67
2023/04/20 18:13:40;;;;;;;11.93;10.43;;;;;;;;;;10076249;28;20054;-69
2023/04/20 18:18:34;;;;;;;11.57;10.32;;;;;;;;;;10072483;28;20045;-68
2023/04/20 18:23:28;;;;;;;14.10;12.05;;;;;;;;;;10069559;28;20412;-69
2023/04/20 18:28:22;;;;;;;12.50;10.70;;;;;;;;;;10077535;28;20076;-68
2023/04/20 18:33:15;;;;;;;13.13;11.18;;;;;;;;;;10094003;28;20050;-67
2023/04/20 18:38:10;;;;;;;14.18;10.43;;;;;;;;;;10090636;28;20056;-68
2023/04/20 18:43:03;;;;;;;20.13;13.30;;;;;;;;;;10068725;28;20080;-66
2023/04/20 18:47:57;;;;;;;13.13;11.82;;;;;;;;;;10068505;28;20108;-66
2023/04/20 18:52:51;;;;;;;15.65;12.45;;;;;;;;;;10078008;28;20095;-68
2023/04/20 18:57:44;;;;;;;13.52;12.10;;;;;;;;;;10071221;28;20140;-66
2023/04/20 19:02:38;;;;;;;11.98;10.75;;;;;;;;;;10072377;28;20063;-66
2023/04/20 19:07:32;;;;;;;13.80;11.93;;;;;;;;;;10074279;28;20100;-66
2023/04/20 19:12:26;;;;;;;15.35;12.05;;;;;;;;;;10073947;28;20064;-65
2023/04/20 19:17:20;;;;;;;12.90;11.57;;;;;;;;;;10074975;28;20045;-65
2023/04/20 19:22:14;;;;;;;13.20;11.80;;;;;;;;;;10070410;28;20084;-65
2023/04/20 19:27:07;;;;;;;12.98;11.23;;;;;;;;;;10079888;28;20530;-71
2023/04/20 19:32:01;;;;;;;12.88;10.82;;;;;;;;;;10117304;28;20128;-76
2023/04/20 19:36:55;;;;;;;14.20;11.48;;;;;;;;;;10109050;28;20048;-71
2023/04/20 19:41:48;;;;;;;12.82;11.63;;;;;;;;;;10098281;28;20041;-73
2023/04/20 19:46:42;;;;;;;13.77;12.38;;;;;;;;;;10118399;28;20065;-73
2023/04/20 19:51:36;;;;;;;13.63;12.32;;;;;;;;;;10161972;28;20055;-72
2023/04/20 19:56:30;;;;;;;14.20;12.50;;;;;;;;;;10145394;28;20048;-73
2023/04/20 20:01:23;;;;;;;15.40;11.95;;;;;;;;;;10144902;28;20442;-71
2023/04/20 20:06:17;;;;;;;19.00;12.25;;;;;;;;;;10150941;28;20044;-74
2023/04/20 20:11:10;;;;;;;15.15;13.15;;;;;;;;;;10153045;28;20055;-69
2023/04/20 20:16:04;;;;;;;15.80;13.07;;;;;;;;;;10140248;28;20049;-71
2023/04/20 20:20:58;;;;;;;16.77;13.95;;;;;;;;;;10147410;28;20125;-71
2023/04/20 20:25:52;;;;;;;15.48;13.05;;;;;;;;;;10146751;28;20087;-67
2023/04/20 20:30:45;;;;;;;15.65;13.95;;;;;;;;;;10157490;28;20049;-71
2023/04/20 20:35:40;;;;;;;15.35;13.00;;;;;;;;;;10148432;28;20076;-69
2023/04/20 20:40:34;;;;;;;17.17;13.75;;;;;;;;;;10143650;28;20080;-68
2023/04/20 20:45:27;;;;;;;14.65;13.13;;;;;;;;;;10143782;28;20053;-69
2023/04/20 20:50:21;;;;;;;14.05;11.82;;;;;;;;;;10142201;28;20395;-69
2023/04/20 20:55:15;;;;;;;13.82;12.35;;;;;;;;;;10121492;28;20136;-68
2023/04/20 21:00:12;;;;;;;14.73;13.15;;;;;;;;;;10140688;28;20136;-69
2023/04/20 21:05:06;;;;;;;16.13;12.05;;;;;;;;;;10139429;28;20076;-68
2023/04/20 21:10:00;;;;;;;15.40;13.80;;;;;;;;;;10166916;28;20056;-68
2023/04/20 21:14:53;;;;;;;14.52;12.77;;;;;;;;;;10160550;28;20093;-68
2023/04/20 21:19:46;;;;;;;16.63;13.23;;;;;;;;;;10137975;28;20076;-70
2023/04/20 21:24:40;;;;;;;16.27;14.13;;;;;;;;;;10124743;28;20049;-70
2023/04/20 21:29:34;;;;;;;15.80;14.13;;;;;;;;;;10139723;28;20082;-69
2023/04/20 21:34:27;;;;;;;17.05;14.95;;;;;;;;;;10137358;28;20448;-70
2023/04/20 21:39:21;;;;;;;17.58;15.70;;;;;;;;;;10127844;28;20127;-70
2023/04/20 21:44:15;;;;;;;16.25;14.55;;;;;;;;;;10139606;28;20044;-70
2023/04/20 21:49:09;;;;;;;16.42;14.63;;;;;;;;;;10143653;28;20458;-70
2023/04/20 21:54:03;;;;;;;17.10;15.30;;;;;;;;;;10141767;28;20123;-69
2023/04/20 21:58:57;;;;;;;20.55;16.48;;;;;;;;;;10137367;28;20044;-70
2023/04/20 22:03:50;;;;;;;18.75;16.02;;;;;;;;;;10129703;28;20114;-69
2023/04/20 22:08:43;;;;;;;15.40;13.80;;;;;;;;;;10122134;28;20056;-69
2023/04/20 22:13:37;;;;;;;17.20;15.38;;;;;;;;;;10133387;28;20049;-69
2023/04/20 22:18:30;;;;;;;16.63;14.88;;;;;;;;;;10130200;28;20045;-70
2023/04/20 22:23:24;;;;;;;15.52;13.88;;;;;;;;;;10126989;28;20416;-69
2023/04/20 22:28:17;;;;;;;14.70;13.20;;;;;;;;;;10117889;28;20090;-69
2023/04/20 22:33:10;;;;;;;17.90;15.10;;;;;;;;;;10124964;28;20045;-69
2023/04/20 22:38:04;;;;;;;16.85;15.05;;;;;;;;;;10111876;28;20416;-69
2023/04/20 22:42:58;;;;;;;16.00;14.40;;;;;;;;;;10116183;28;20060;-69
2023/04/20 22:47:51;;;;;;;18.77;15.23;;;;;;;;;;10127694;28;20052;-69
2023/04/20 22:52:45;;;;;;;19.00;15.10;;;;;;;;;;10104965;28;20051;-69
2023/04/20 22:57:40;;;;;;;16.67;14.90;;;;;;;;;;10139603;28;20166;-69
2023/04/20 23:02:33;;;;;;;17.13;15.30;;;;;;;;;;10135356;28;20110;-69
2023/04/20 23:07:26;;;;;;;23.58;16.42;;;;;;;;;;10127988;28;20052;-69
2023/04/20 23:12:20;;;;;;;20.58;15.32;;;;;;;;;;10092061;28;20492;-68
2023/04/20 23:17:12;;;;;;;20.48;16.50;;;;;;;;;;10120078;28;20102;-68
2023/04/20 23:22:07;;;;;;;19.73;16.60;;;;;;;;;;10131179;28;20055;-69
2023/04/20 23:27:00;;;;;;;17.38;15.55;;;;;;;;;;10120414;28;20068;-68
2023/04/20 23:31:53;;;;;;;19.58;16.60;;;;;;;;;;10090901;28;20073;-68
2023/04/20 23:36:47;;;;;;;20.33;17.40;;;;;;;;;;10112085;28;20052;-68
2023/04/20 23:41:42;;;;;;;17.73;15.82;;;;;;;;;;10129850;28;20045;-68
2023/04/20 23:46:39;;;;;;;23.10;15.27;;;;;;;;;;10117930;28;20057;-68
2023/04/20 23:51:31;;;;;;;22.17;16.77;;;;;;;;;;10087376;28;20047;-69
2023/04/20 23:56:25;;;;;;;23.80;17.17;;;;;;;;;;10098317;28;20148;-68
